Time;durP1;ratioP1;P1;durP2;ratioP2;P2;SDS_P1;SDS_P2;PMS_P1;PMS_P2;Temp;Humidity;BMP_temperature;BMP_pressure;BME280_temperature;BME280_humidity;BME280_pressure;Samples;Min_cycle;Max_cycle;Signal;HPM_P1;HPM_P2
2022/06/09 00:01:15;;;;;;;47.77;14.83;;;15.30;99.90;;;;;;5092724;28;20055;-77
2022/06/09 00:04:00;;;;;;;45.70;13.57;;;15.20;99.90;;;;;;5093132;28;20127;-78
2022/06/09 00:06:34;;;;;;;45.95;14.45;;;15.30;99.90;;;;;;5093141;28;20048;-78
2022/06/09 00:09:02;;;;;;;44.40;14.83;;;15.20;99.90;;;;;;5098147;28;20059;-77
2022/06/09 00:11:28;;;;;;;36.13;13.10;;;15.30;99.90;;;;;;5099947;28;20123;-77
2022/06/09 00:13:54;;;;;;;38.23;15.23;;;15.20;99.90;;;;;;5099921;28;20043;-77
2022/06/09 00:16:20;;;;;;;45.80;15.20;;;15.20;99.90;;;;;;5099402;28;20044;-77
2022/06/09 00:18:46;;;;;;;40.60;14.57;;;15.20;99.90;;;;;;5099557;28;20058;-77
2022/06/09 00:21:11;;;;;;;53.73;15.77;;;15.20;99.90;;;;;;5099181;28;20048;-76
2022/06/09 00:23:37;;;;;;;35.50;15.00;;;15.20;99.90;;;;;;5081591;28;20052;-76
2022/06/09 00:26:04;;;;;;;51.37;15.20;;;15.20;99.90;;;;;;5081508;28;20051;-75
2022/06/09 00:28:31;;;;;;;45.83;16.00;;;15.20;99.90;;;;;;5099507;28;20511;-76
2022/06/09 00:30:56;;;;;;;58.03;16.37;;;15.20;99.90;;;;;;5081600;28;20067;-77
2022/06/09 00:33:22;;;;;;;40.70;14.33;;;15.20;99.90;;;;;;5099166;28;20043;-76
2022/06/09 00:35:49;;;;;;;36.87;13.77;;;15.10;99.90;;;;;;5099333;28;20052;-76
2022/06/09 00:38:15;;;;;;;41.23;15.60;;;15.10;99.90;;;;;;5064203;28;20055;-76
2022/06/09 00:40:41;;;;;;;36.03;13.97;;;15.10;99.90;;;;;;5099414;28;20052;-76
2022/06/09 00:43:06;;;;;;;47.67;15.73;;;15.10;99.90;;;;;;5099197;28;20093;-76
2022/06/09 00:45:59;;;;;;;41.90;14.43;;;15.10;99.90;;;;;;5099365;28;20126;-76
2022/06/09 00:48:41;;;;;;;41.80;14.53;;;15.10;99.90;;;;;;5081233;28;20048;-76
2022/06/09 00:51:29;;;;;;;39.07;14.30;;;15.10;99.90;;;;;;5099246;28;20404;-76
2022/06/09 00:54:01;;;;;;;40.00;14.07;;;15.00;99.90;;;;;;5081483;28;20044;-76
2022/06/09 00:56:27;;;;;;;49.70;14.53;;;15.00;99.90;;;;;;5099134;28;20495;-76
2022/06/09 00:58:55;;;;;;;39.07;14.17;;;15.00;99.90;;;;;;5099155;28;20052;-76
2022/06/09 01:01:22;;;;;;;37.23;13.33;;;14.90;99.90;;;;;;5098554;28;20484;-76
2022/06/09 01:03:51;;;;;;;37.73;13.13;;;14.90;99.90;;;;;;5099411;28;20062;-76
2022/06/09 01:06:24;;;;;;;45.13;14.20;;;14.90;99.90;;;;;;5098955;28;20055;-76
2022/06/09 01:09:06;;;;;;;42.77;13.57;;;14.80;99.90;;;;;;5099171;28;20040;-76
2022/06/09 01:11:33;;;;;;;34.03;14.13;;;14.80;99.90;;;;;;5099122;28;20050;-76
2022/06/09 01:13:59;;;;;;;42.67;13.53;;;14.70;99.90;;;;;;5099172;28;20129;-76
2022/06/09 01:16:54;;;;;;;35.50;12.53;;;14.70;99.90;;;;;;5098873;28;20105;-76
2022/06/09 01:19:43;;;;;;;40.07;13.07;;;14.70;99.90;;;;;;5079327;28;20118;-76
2022/06/09 01:22:09;;;;;;;27.60;12.47;;;14.60;99.90;;;;;;5077565;28;20051;-76
2022/06/09 01:24:35;;;;;;;44.23;15.07;;;14.60;99.90;;;;;;5095822;28;20050;-76
2022/06/09 01:27:16;;;;;;;36.17;12.73;;;14.70;99.90;;;;;;5095785;28;20044;-76
2022/06/09 01:29:44;;;;;;;35.17;12.20;;;14.60;99.90;;;;;;5095753;28;20119;-76
2022/06/09 01:32:31;;;;;;;38.50;13.23;;;14.60;99.90;;;;;;5095377;28;20052;-76
2022/06/09 01:35:16;;;;;;;36.03;12.80;;;14.50;99.90;;;;;;5095724;28;20109;-76
2022/06/09 01:37:46;;;;;;;38.67;12.95;;;14.50;99.90;;;;;;5077864;28;20052;-77
2022/06/09 01:40:16;;;;;;;34.23;11.73;;;14.40;99.90;;;;;;5095056;28;20429;-76
2022/06/09 01:42:48;;;;;;;26.97;11.27;;;14.40;99.90;;;;;;5095309;28;20499;-76
2022/06/09 01:45:25;;;;;;;32.80;12.63;;;14.30;99.90;;;;;;5077581;28;20058;-76
2022/06/09 01:48:07;;;;;;;36.57;12.33;;;14.30;99.90;;;;;;5095544;28;20051;-76
2022/06/09 01:50:39;;;;;;;39.63;12.70;;;;;;;;;;5094970;28;20127;-76
2022/06/09 01:53:17;;;;;;;30.57;12.33;;;;;;;;;;5095274;28;20079;-76
2022/06/09 01:55:46;;;;;;;34.90;11.93;;;;;;;;;;5095358;28;20055;-76
2022/06/09 01:58:15;;;;;;;34.27;12.63;;;;;;;;;;5095090;28;20105;-76
2022/06/09 02:00:42;;;;;;;33.53;12.63;;;;;;;;;;5077391;28;20049;-77
2022/06/09 02:03:28;;;;;;;35.33;12.73;;;;;;;;;;5095004;28;20090;-77
2022/06/09 02:05:59;;;;;;;34.30;13.03;;;14.10;99.90;;;;;;5094719;28;20051;-77
2022/06/09 02:08:29;;;;;;;39.20;13.80;;;14.20;99.90;;;;;;5076837;28;20044;-77
2022/06/09 02:10:59;;;;;;;29.03;11.47;;;14.10;99.90;;;;;;5094903;28;20051;-77
2022/06/09 02:13:31;;;;;;;33.00;12.30;;;14.20;99.90;;;;;;5094506;28;20048;-76
2022/06/09 02:16:05;;;;;;;26.73;10.83;;;14.00;99.90;;;;;;5094651;28;20492;-76
2022/06/09 02:18:37;;;;;;;33.47;12.82;;;14.00;99.90;;;;;;5094370;28;20044;-76
2022/06/09 02:21:26;;;;;;;33.73;13.13;;;13.90;99.90;;;;;;5094805;28;20050;-76
2022/06/09 02:23:53;;;;;;;36.07;14.63;;;14.00;99.90;;;;;;5094723;28;20377;-77
2022/06/09 02:26:20;;;;;;;32.00;13.53;;;14.10;99.90;;;;;;5094500;28;20281;-76
2022/06/09 02:28:47;;;;;;;31.77;13.30;;;14.00;99.90;;;;;;5094467;28;20043;-77
2022/06/09 02:31:13;;;;;;;33.10;13.30;;;14.10;99.90;;;;;;5094080;28;20044;-77
2022/06/09 02:33:39;;;;;;;31.07;13.43;;;14.10;99.90;;;;;;5094252;28;20285;-77
2022/06/09 02:36:05;;;;;;;33.73;14.00;;;14.10;99.90;;;;;;5094424;28;20342;-76
2022/06/09 02:38:31;;;;;;;27.83;13.40;;;14.00;99.90;;;;;;5093943;28;20056;-77
2022/06/09 02:40:56;;;;;;;32.13;12.70;;;14.00;99.90;;;;;;5094116;28;20551;-77
2022/06/09 02:43:24;;;;;;;37.27;14.17;;;14.20;99.90;;;;;;5093706;28;20076;-77
2022/06/09 02:45:53;;;;;;;30.63;12.80;;;14.10;99.90;;;;;;5094318;28;20052;-77
2022/06/09 02:48:19;;;;;;;33.00;13.27;;;14.10;99.90;;;;;;5093904;28;20110;-76
2022/06/09 02:50:46;;;;;;;24.30;13.53;;;14.20;99.90;;;;;;5094123;28;20043;-77
2022/06/09 02:53:13;;;;;;;30.93;13.93;;;14.30;99.90;;;;;;5094044;28;20496;-77
2022/06/09 02:55:39;;;;;;;25.23;12.13;;;14.20;99.90;;;;;;5093716;28;20056;-77
2022/06/09 02:58:05;;;;;;;27.23;14.47;;;14.20;99.90;;;;;;5093838;28;20058;-77
2022/06/09 03:00:30;;;;;;;25.77;12.97;;;14.20;99.90;;;;;;5093668;28;20293;-77
2022/06/09 03:03:03;;;;;;;30.43;13.87;;;14.10;99.90;;;;;;5093903;28;20048;-77
2022/06/09 03:05:31;;;;;;;27.03;13.33;;;14.10;99.90;;;;;;5093501;28;20084;-77
2022/06/09 03:07:57;;;;;;;32.53;14.40;;;14.10;99.90;;;;;;5093899;28;20094;-77
2022/06/09 03:10:23;;;;;;;26.73;12.93;;;14.20;99.90;;;;;;5093410;28;20075;-76
2022/06/09 03:12:50;;;;;;;26.97;13.63;;;14.10;99.90;;;;;;5094006;28;20105;-77
2022/06/09 03:15:18;;;;;;;22.50;12.53;;;14.10;99.90;;;;;;5093849;28;20290;-77
2022/06/09 03:17:44;;;;;;;21.23;11.77;;;14.20;99.90;;;;;;5093460;28;20777;-76
2022/06/09 03:20:15;;;;;;;21.73;12.67;;;14.20;99.90;;;;;;5093361;28;20190;-77
2022/06/09 03:22:41;;;;;;;25.37;12.93;;;14.30;99.90;;;;;;5093313;28;20175;-76
2022/06/09 03:25:07;;;;;;;27.80;13.50;;;14.20;99.90;;;;;;5093319;28;20461;-76
2022/06/09 03:27:33;;;;;;;22.47;12.37;;;14.30;99.90;;;;;;5093289;28;20131;-76
2022/06/09 03:30:01;;;;;;;22.10;12.10;;;14.40;99.90;;;;;;5093500;28;20349;-76
2022/06/09 03:32:27;;;;;;;20.60;11.67;;;14.20;99.90;;;;;;5075259;28;20507;-77
2022/06/09 03:34:53;;;;;;;26.07;13.93;;;14.20;99.90;;;;;;5093330;28;20091;-76
2022/06/09 03:37:20;;;;;;;27.67;12.90;;;14.20;99.90;;;;;;5093119;28;20633;-76
2022/06/09 03:39:46;;;;;;;19.47;13.03;;;14.20;99.90;;;;;;5092902;28;20105;-77
2022/06/09 03:42:11;;;;;;;20.70;12.33;;;14.30;99.90;;;;;;5074852;28;20048;-77
2022/06/09 03:44:37;;;;;;;21.53;13.90;;;14.40;99.90;;;;;;5092777;28;20380;-77
2022/06/09 03:47:03;;;;;;;20.83;12.90;;;14.30;99.90;;;;;;5093384;28;20097;-77
2022/06/09 03:49:29;;;;;;;26.13;13.47;;;14.30;99.90;;;;;;5092818;28;20101;-76
2022/06/09 03:51:55;;;;;;;22.73;13.53;;;14.30;99.90;;;;;;5093123;28;20036;-77
2022/06/09 03:54:20;;;;;;;22.50;13.50;;;14.30;99.90;;;;;;5092944;28;20086;-76
2022/06/09 03:56:47;;;;;;;23.27;12.87;;;14.40;99.90;;;;;;5092785;28;20052;-76
2022/06/09 03:59:13;;;;;;;27.63;16.10;;;14.30;99.90;;;;;;5074977;28;20408;-77
2022/06/09 04:01:39;;;;;;;24.60;15.43;;;14.30;99.90;;;;;;5092729;28;20052;-76
2022/06/09 04:04:06;;;;;;;24.77;15.67;;;14.30;99.90;;;;;;5075461;28;20048;-77
2022/06/09 04:06:32;;;;;;;24.10;16.10;;;14.30;99.90;;;;;;5092739;28;20044;-77
2022/06/09 04:08:57;;;;;;;30.90;21.70;;;14.30;99.90;;;;;;5092749;28;20066;-77
2022/06/09 04:11:23;;;;;;;32.10;22.60;;;14.40;99.90;;;;;;5092993;28;20040;-76
2022/06/09 04:13:49;;;;;;;36.80;24.67;;;14.30;99.90;;;;;;5092614;28;20054;-78
2022/06/09 04:16:33;;;;;;;28.90;24.03;;;14.40;99.90;;;;;;5092877;28;20066;-77
2022/06/09 04:19:02;;;;;;;38.73;25.23;;;14.50;99.90;;;;;;5092803;28;20044;-77
2022/06/09 04:21:30;;;;;;;35.73;26.43;;;14.30;99.90;;;;;;5092469;28;20047;-76
2022/06/09 04:23:56;;;;;;;36.20;27.40;;;14.40;99.90;;;;;;5093076;28;20127;-76
2022/06/09 04:26:25;;;;;;;34.30;26.17;;;14.30;99.90;;;;;;5092904;28;20048;-76
2022/06/09 04:28:51;;;;;;;37.00;24.83;;;14.40;99.90;;;;;;5092363;28;20084;-77
2022/06/09 04:31:17;;;;;;;33.77;23.80;;;14.40;99.90;;;;;;5092844;28;20040;-77
2022/06/09 04:33:44;;;;;;;36.73;23.30;;;14.30;99.90;;;;;;5092380;28;20126;-76
2022/06/09 04:36:11;;;;;;;35.80;25.13;;;14.40;99.90;;;;;;5074778;28;20048;-76
2022/06/09 04:38:37;;;;;;;40.47;23.87;;;14.60;99.90;;;;;;5092479;28;20511;-76
2022/06/09 04:41:04;;;;;;;34.70;24.23;;;14.50;99.90;;;;;;5092632;28;20465;-76
2022/06/09 04:43:30;;;;;;;37.03;26.33;;;14.50;99.90;;;;;;5092669;28;20048;-76
2022/06/09 04:45:56;;;;;;;38.47;25.93;;;14.40;99.90;;;;;;5092281;28;20047;-76
2022/06/09 04:48:24;;;;;;;39.50;24.43;;;14.50;99.90;;;;;;5092388;28;20048;-77
2022/06/09 04:50:50;;;;;;;44.07;26.90;;;14.50;99.90;;;;;;5092091;28;20476;-76
2022/06/09 04:53:16;;;;;;;33.90;23.90;;;14.50;99.90;;;;;;5074815;28;20130;-76
2022/06/09 04:55:43;;;;;;;30.60;23.73;;;14.50;99.90;;;;;;5096004;28;20098;-76
2022/06/09 04:58:09;;;;;;;40.33;26.53;;;14.60;99.90;;;;;;5096412;28;20381;-76
2022/06/09 05:00:35;;;;;;;31.73;23.83;;;14.60;99.90;;;;;;5095151;28;20094;-76
2022/06/09 05:03:04;;;;;;;33.07;24.57;;;14.60;99.90;;;;;;5078011;28;20052;-76
2022/06/09 05:05:33;;;;;;;37.57;26.20;;;14.60;99.90;;;;;;5078108;28;20109;-77
2022/06/09 05:07:59;;;;;;;36.50;25.20;;;14.60;99.90;;;;;;5077655;28;20065;-77
2022/06/09 05:10:27;;;;;;;35.13;25.03;;;14.60;99.90;;;;;;5096059;28;20044;-81
2022/06/09 05:12:53;;;;;;;28.77;23.37;;;14.60;99.90;;;;;;5095739;28;20044;-77
2022/06/09 05:15:20;;;;;;;32.50;23.37;;;14.50;99.90;;;;;;5095839;28;20582;-79
2022/06/09 05:17:47;;;;;;;31.23;23.77;;;14.60;99.90;;;;;;5095524;28;20090;-78
2022/06/09 05:20:16;;;;;;;25.53;21.57;;;14.70;99.90;;;;;;5078046;28;20378;-77
2022/06/09 05:22:42;;;;;;;29.97;22.90;;;14.70;99.90;;;;;;5095654;28;20048;-76
2022/06/09 05:25:08;;;;;;;26.50;20.67;;;14.70;99.90;;;;;;5061574;28;20052;-77
2022/06/09 05:27:35;;;;;;;26.90;20.83;;;14.90;99.90;;;;;;5095809;28;20123;-77
2022/06/09 05:30:01;;;;;;;25.20;20.40;;;;;;;;;;5095448;28;20432;-77
2022/06/09 05:32:27;;;;;;;25.63;18.27;;;;;;;;;;5095505;28;20376;-77
2022/06/09 05:34:53;;;;;;;24.53;21.10;;;;;;;;;;5095449;28;20134;-71
2022/06/09 05:37:19;;;;;;;24.23;18.80;;;;;;;;;;5095552;28;20052;-79
2022/06/09 05:45:16;;;;;;;;;;;;;;;;;;5095895;28;20091;-78
2022/06/09 05:47:42;;;;;;;24.07;19.57;;;;;;;;;;5077452;28;19963;-79
2022/06/09 05:50:09;;;;;;;23.33;19.50;;;;;;;;;;5095398;28;20579;-78
2022/06/09 05:52:36;;;;;;;23.03;19.00;;;15.40;99.90;;;;;;5095495;28;20109;-78
2022/06/09 05:55:02;;;;;;;21.20;18.67;;;;;;;;;;5094970;28;20051;-78
2022/06/09 05:57:28;;;;;;;17.77;15.93;;;15.50;99.90;;;;;;5095040;28;20348;-77
2022/06/09 05:59:55;;;;;;;22.50;18.97;;;15.70;99.90;;;;;;5094934;28;20091;-77
2022/06/09 06:02:22;;;;;;;17.97;16.10;;;;;;;;;;5095083;28;20051;-78
2022/06/09 06:04:49;;;;;;;15.80;14.20;;;;;;;;;;5094594;28;20044;-78
2022/06/09 06:07:15;;;;;;;14.67;13.17;;;16.80;99.90;;;;;;5094215;28;20056;-78
2022/06/09 06:09:41;;;;;;;14.30;12.13;;;;;;;;;;5094857;28;20032;-78
2022/06/09 06:12:08;;;;;;;13.20;11.80;;;17.20;99.90;;;;;;5094552;28;20055;-78
2022/06/09 06:14:33;;;;;;;12.47;11.17;;;17.60;99.90;;;;;;5095284;28;20089;-78
2022/06/09 06:16:59;;;;;;;12.57;11.33;;;17.80;99.90;;;;;;5094520;28;20423;-78
2022/06/09 06:19:25;;;;;;;12.87;10.30;;;18.80;99.90;;;;;;5094774;28;20044;-78
2022/06/09 06:21:53;;;;;;;11.00;8.97;;;20.80;99.90;;;;;;5094441;28;20044;-79
2022/06/09 06:24:20;;;;;;;11.03;8.40;;;21.00;99.90;;;;;;5094638;28;20054;-79
2022/06/09 06:26:46;;;;;;;10.07;6.47;;;21.90;99.90;;;;;;5094162;28;20097;-79
2022/06/09 06:29:22;;;;;;;8.73;7.17;;;23.60;99.90;;;;;;5094607;28;20044;-80
2022/06/09 06:31:48;;;;;;;9.53;6.10;;;;;;;;;;5094229;28;20051;-79
2022/06/09 06:34:14;;;;;;;13.27;6.30;;;;;;;;;;5094356;28;20087;-80
2022/06/09 06:36:40;;;;;;;7.87;5.33;;;25.70;99.90;;;;;;5094400;28;20048;-80
2022/06/09 06:39:06;;;;;;;7.80;5.20;;;;;;;;;;5075720;28;20056;-80
2022/06/09 06:41:32;;;;;;;7.20;5.33;;;;;;;;;;5094339;28;20488;-80
2022/06/09 06:43:58;;;;;;;6.17;5.23;;;27.20;99.90;;;;;;5094091;28;20113;-80
2022/06/09 06:46:24;;;;;;;8.67;5.63;;;27.10;99.90;;;;;;5076155;28;20484;-80
2022/06/09 06:48:50;;;;;;;8.37;5.07;;;;;;;;;;5093910;28;20036;-80
2022/06/09 06:51:17;;;;;;;6.60;4.00;;;;;;;;;;5094082;28;20043;-80
2022/06/09 06:53:42;;;;;;;8.00;3.67;;;26.90;94.80;;;;;;5093871;28;20055;-81
2022/06/09 06:56:09;;;;;;;7.93;3.67;;;;;;;;;;5093826;28;20036;-81
2022/06/09 06:58:35;;;;;;;8.10;3.73;;;28.10;99.90;;;;;;5094164;28;20155;-81
2022/06/09 07:01:02;;;;;;;6.55;3.35;;;28.30;87.00;;;;;;5093702;28;20044;-81
2022/06/09 07:03:32;;;;;;;6.55;3.50;;;;;;;;;;5093869;28;20067;-81
2022/06/09 07:05:58;;;;;;;7.53;3.10;;;;;;;;;;5093558;28;20059;-81
2022/06/09 07:08:24;;;;;;;7.45;3.15;;;29.00;68.20;;;;;;5093618;28;20044;-81
2022/06/09 07:10:52;;;;;;;7.22;3.05;;;29.10;67.10;;;;;;5093883;28;20036;-82
2022/06/09 07:13:18;;;;;;;9.27;3.40;;;;;;;;;;5093689;28;20135;-81
2022/06/09 07:15:44;;;;;;;7.50;3.17;;;29.50;63.00;;;;;;5093750;28;20480;-81
2022/06/09 07:18:09;;;;;;;8.27;3.00;;;29.60;59.50;;;;;;5093207;28;20050;-81
2022/06/09 07:20:38;;;;;;;5.30;2.28;;;29.60;59.80;;;;;;5093455;28;20369;-81
2022/06/09 07:23:04;;;;;;;5.45;2.30;;;;;;;;;;5093106;28;20399;-81
2022/06/09 07:25:30;;;;;;;8.38;2.33;;;30.20;55.50;;;;;;5075787;28;20135;-81
2022/06/09 07:27:56;;;;;;;7.68;2.42;;;;;;;;;;5093295;28;20083;-80
2022/06/09 07:30:23;;;;;;;5.43;2.00;;;;;;;;;;5093727;28;20048;-81
2022/06/09 07:32:50;;;;;;;7.03;2.08;;;;;;;;;;5093414;28;20073;-81
2022/06/09 07:35:20;;;;;;;7.43;2.30;;;30.60;54.10;;;;;;5092976;28;20055;-81
2022/06/09 07:37:46;;;;;;;7.03;1.92;;;30.60;53.10;;;;;;5093298;28;20385;-80
2022/06/09 07:40:12;;;;;;;6.88;2.53;;;30.00;54.40;;;;;;5093025;28;20044;-80
2022/06/09 07:42:39;;;;;;;5.72;1.98;;;29.50;54.60;;;;;;5093300;28;20094;-80
2022/06/09 07:45:08;;;;;;;7.32;2.15;;;29.70;54.70;;;;;;5092917;28;20094;-80
2022/06/09 07:47:34;;;;;;;7.47;2.00;;;30.10;54.10;;;;;;5093173;28;20399;-80
2022/06/09 07:50:00;;;;;;;7.43;2.40;;;30.40;51.90;;;;;;5092664;28;20036;-77
2022/06/09 07:52:25;;;;;;;7.07;1.98;;;30.70;52.20;;;;;;5093287;28;20044;-77
2022/06/09 07:54:51;;;;;;;8.70;2.75;;;31.00;51.40;;;;;;5093384;28;20472;-77
2022/06/09 07:57:17;;;;;;;7.30;2.15;;;31.30;50.10;;;;;;5092839;28;20224;-77
2022/06/09 07:59:43;;;;;;;6.85;2.00;;;31.30;49.20;;;;;;5075123;28;20044;-77
2022/06/09 08:02:10;;;;;;;6.25;2.22;;;31.50;50.40;;;;;;5092705;28;20047;-76
2022/06/09 08:04:36;;;;;;;6.68;2.15;;;32.00;49.60;;;;;;5092793;28;20051;-76
2022/06/09 08:07:02;;;;;;;7.78;2.25;;;32.10;48.50;;;;;;5093088;28;20043;-77
2022/06/09 08:09:29;;;;;;;7.13;1.80;;;32.20;48.70;;;;;;5093158;28;20048;-77
2022/06/09 08:11:55;;;;;;;7.13;2.20;;;32.20;47.90;;;;;;5093033;28;20046;-77
2022/06/09 08:14:20;;;;;;;7.20;2.17;;;31.70;47.40;;;;;;5092611;28;20131;-76
2022/06/09 08:16:46;;;;;;;8.43;2.13;;;31.20;66.10;;;;;;5074994;28;20104;-77
2022/06/09 08:19:12;;;;;;;8.55;2.45;;;;;;;;;;5092287;28;20040;-77
2022/06/09 08:21:38;;;;;;;6.20;2.00;;;30.80;75.40;;;;;;5093174;28;20067;-77
2022/06/09 08:24:05;;;;;;;9.40;2.53;;;30.10;49.20;;;;;;5092730;28;20480;-77
2022/06/09 08:26:31;;;;;;;7.30;2.47;;;29.70;49.40;;;;;;5093036;28;20052;-78
2022/06/09 08:28:57;;;;;;;7.97;2.60;;;29.40;49.60;;;;;;5093707;28;20112;-77
2022/06/09 08:31:22;;;;;;;7.20;2.47;;;28.70;50.30;;;;;;5096499;28;20040;-77
2022/06/09 08:33:48;;;;;;;8.07;2.70;;;28.30;51.80;;;;;;5096533;28;20044;-78
2022/06/09 08:36:14;;;;;;;8.45;2.80;;;28.30;53.10;;;;;;5096560;28;20067;-79
2022/06/09 08:38:41;;;;;;;9.77;3.25;;;28.20;52.80;;;;;;5096560;28;20052;-80
2022/06/09 08:41:17;;;;;;;8.35;2.45;;;28.10;74.00;;;;;;5096414;28;20070;-79
2022/06/09 08:43:58;;;;;;;7.75;2.33;;;28.00;54.10;;;;;;5096753;28;20082;-78
2022/06/09 08:46:43;;;;;;;8.27;2.67;;;;;;;;;;5096275;28;20044;-78
2022/06/09 08:49:39;;;;;;;9.52;3.13;;;27.60;54.40;;;;;;5096405;28;20048;-77
2022/06/09 08:52:19;;;;;;;7.53;2.50;;;27.40;54.00;;;;;;5096197;28;20044;-77
2022/06/09 08:54:47;;;;;;;9.45;3.53;;;27.20;56.70;;;;;;5077898;28;20438;-78
2022/06/09 08:57:17;;;;;;;10.38;2.65;;;26.70;58.30;;;;;;5095595;28;20094;-78
2022/06/09 08:59:49;;;;;;;7.85;2.72;;;26.40;58.70;;;;;;5095895;28;20055;-78
2022/06/09 09:02:34;;;;;;;8.38;3.13;;;25.90;57.80;;;;;;5095497;28;20040;-78
2022/06/09 09:05:23;;;;;;;9.30;2.90;;;25.30;60.10;;;;;;5093539;28;20040;-78
2022/06/09 09:07:51;;;;;;;7.10;2.58;;;25.10;64.30;;;;;;5094778;28;20055;-71
2022/06/09 09:10:47;;;;;;;9.30;2.47;;;24.80;78.00;;;;;;5093142;28;20082;-75
2022/06/09 09:13:45;;;;;;;8.80;2.60;;;24.40;65.40;;;;;;5074542;28;20052;-75
2022/06/09 09:16:31;;;;;;;9.38;2.92;;;24.50;67.30;;;;;;5095949;28;20048;-74
2022/06/09 09:19:13;;;;;;;7.85;1.90;;;;;;;;;;5096098;28;20138;-76
2022/06/09 09:22:03;;;;;;;7.95;1.83;;;;;;;;;;5077723;28;20047;-75
2022/06/09 09:24:48;;;;;;;8.75;2.47;;;24.00;73.00;;;;;;5095804;28;20694;-72
2022/06/09 09:27:37;;;;;;;9.00;2.27;;;24.00;72.30;;;;;;5095612;28;20048;-76
2022/06/09 09:30:17;;;;;;;9.97;2.13;;;23.70;71.20;;;;;;5070250;28;20408;-75
2022/06/09 09:32:49;;;;;;;7.40;2.10;;;23.50;73.20;;;;;;5095767;28;20047;-75
2022/06/09 09:35:17;;;;;;;7.80;2.20;;;23.50;75.00;;;;;;5095269;28;20044;-74
2022/06/09 09:37:47;;;;;;;10.97;2.30;;;23.40;76.50;;;;;;5077634;28;20397;-77
2022/06/09 09:40:18;;;;;;;10.83;2.57;;;23.40;76.20;;;;;;5094158;28;20044;-79
2022/06/09 09:42:45;;;;;;;11.77;2.63;;;23.30;77.90;;;;;;5095265;28;20051;-78
2022/06/09 09:45:11;;;;;;;8.13;2.07;;;23.30;78.50;;;;;;5095534;28;20044;-79
2022/06/09 09:47:46;;;;;;;9.73;2.37;;;;;;;;;;5095237;28;20545;-80
2022/06/09 09:50:18;;;;;;;9.10;2.00;;;;;;;;;;5095423;28;20040;-76
2022/06/09 09:52:46;;;;;;;7.60;2.03;;;23.20;81.40;;;;;;5095242;28;20048;-79
2022/06/09 09:55:36;;;;;;;8.90;2.13;;;23.20;81.50;;;;;;5095052;28;20044;-80
2022/06/09 09:58:17;;;;;;;7.83;1.97;;;23.10;80.20;;;;;;5095212;28;20048;-80
2022/06/09 10:00:43;;;;;;;8.97;2.20;;;;;;;;;;5095266;28;20476;-74
2022/06/09 10:08:49;;;;;;;8.70;2.10;;;;;;;;;;5094894;28;20529;-78
2022/06/09 10:14:21;;;;;;;6.03;1.47;;;22.60;99.90;;;;;;5094831;28;20164;-75
2022/06/09 10:16:53;;;;;;;8.47;2.43;;;22.60;94.60;;;;;;5094914;28;20134;-78
2022/06/09 10:19:21;;;;;;;8.50;2.10;;;;;;;;;;5094565;28;20077;-72
2022/06/09 10:21:53;;;;;;;7.97;2.10;;;22.40;99.90;;;;;;5094595;28;20051;-73
2022/06/09 10:24:41;;;;;;;10.67;2.43;;;22.40;99.90;;;;;;5094229;28;20079;-74
2022/06/09 10:27:07;;;;;;;8.57;2.07;;;22.30;91.00;;;;;;5094740;28;20052;-73
2022/06/09 10:29:59;;;;;;;7.30;2.30;;;22.20;90.10;;;;;;5094307;28;20048;-73
2022/06/09 10:32:47;;;;;;;8.00;2.03;;;22.30;91.20;;;;;;5094267;28;20036;-73
2022/06/09 10:35:41;;;;;;;7.70;2.20;;;22.30;91.50;;;;;;5094644;28;20077;-73
2022/06/09 10:38:25;;;;;;;6.13;1.67;;;22.20;90.70;;;;;;5094370;28;20082;-72
2022/06/09 10:40:57;;;;;;;7.15;2.03;;;22.20;90.00;;;;;;5094170;28;20048;-72
2022/06/09 10:43:59;;;;;;;7.70;1.73;;;22.10;88.30;;;;;;5094097;28;20048;-74
2022/06/09 10:46:41;;;;;;;6.83;2.17;;;22.10;88.00;;;;;;5076223;28;20048;-75
2022/06/09 10:55:16;;;;;;;8.37;2.30;;;21.80;86.60;;;;;;5094174;28;20059;-75
2022/06/09 10:58:31;;;;;;;7.53;1.63;;;21.60;86.70;;;;;;5093710;28;20605;-75
2022/06/09 11:00:58;;;;;;;7.05;2.08;;;21.40;88.80;;;;;;5051490;28;20036;-75
2022/06/09 11:03:28;;;;;;;7.63;2.00;;;21.40;92.30;;;;;;5089526;28;20085;-74
2022/06/09 11:06:16;;;;;;;10.40;2.30;;;21.30;99.10;;;;;;5093803;28;20086;-75
2022/06/09 11:08:50;;;;;;;8.13;2.57;;;21.20;92.00;;;;;;5093438;28;20052;-74
2022/06/09 11:11:27;;;;;;;5.43;1.73;;;21.20;91.90;;;;;;5094071;28;20193;-75
2022/06/09 11:14:03;;;;;;;8.83;2.10;;;21.20;93.60;;;;;;5093249;28;20415;-76
2022/06/09 11:16:37;;;;;;;10.07;2.40;;;21.20;94.50;;;;;;5092806;28;20040;-77
2022/06/09 11:19:43;;;;;;;8.18;2.15;;;21.10;93.40;;;;;;5093394;28;20048;-81
2022/06/09 11:22:29;;;;;;;9.50;2.10;;;21.20;96.00;;;;;;5089267;28;20608;-80
2022/06/09 11:25:33;;;;;;;8.27;2.43;;;21.30;97.10;;;;;;5091100;28;20124;-81
2022/06/09 11:28:17;;;;;;;8.97;2.33;;;21.40;94.30;;;;;;5089500;28;20055;-80
2022/06/09 11:31:02;;;;;;;9.00;2.40;;;21.40;94.80;;;;;;5091924;28;20036;-82
2022/06/09 11:33:48;;;;;;;7.82;2.38;;;21.50;92.30;;;;;;5092111;28;20449;-78
2022/06/09 11:36:36;;;;;;;8.00;2.40;;;21.50;94.50;;;;;;5091114;28;20044;-82
2022/06/09 11:39:48;;;;;;;6.13;1.87;;;21.50;93.00;;;;;;5093175;28;20142;-81
2022/06/09 11:42:27;;;;;;;9.27;2.20;;;21.70;94.40;;;;;;5093536;28;20048;-75
2022/06/09 11:44:55;;;;;;;9.27;2.23;;;21.70;92.40;;;;;;5093401;28;20044;-76
2022/06/09 11:47:27;;;;;;;6.83;2.30;;;21.70;91.30;;;;;;5093335;28;20047;-77
2022/06/09 11:49:56;;;;;;;9.63;2.47;;;21.50;91.50;;;;;;5092918;28;20593;-71
2022/06/09 11:52:28;;;;;;;8.70;2.13;;;21.40;91.70;;;;;;5093178;28;20040;-76
2022/06/09 11:54:55;;;;;;;7.20;2.07;;;21.20;92.00;;;;;;5075363;28;20048;-79
2022/06/09 11:57:46;;;;;;;10.13;2.43;;;21.10;92.60;;;;;;5093143;28;20044;-73
2022/06/09 12:00:27;;;;;;;6.27;1.80;;;21.00;92.30;;;;;;5092840;28;20502;-78
2022/06/09 12:03:20;;;;;;;7.10;2.13;;;21.00;92.30;;;;;;5092218;28;20557;-77
2022/06/09 12:06:03;;;;;;;6.37;2.13;;;21.00;92.60;;;;;;5092678;28;20048;-74
2022/06/09 12:08:45;;;;;;;7.40;2.20;;;21.00;95.00;;;;;;5074939;28;20087;-75
2022/06/09 12:11:20;;;;;;;7.77;2.00;;;21.20;94.40;;;;;;5093142;28;20563;-75
2022/06/09 12:13:48;;;;;;;7.30;2.03;;;21.30;94.60;;;;;;5092790;28;20048;-75
2022/06/09 12:16:40;;;;;;;7.33;2.50;;;21.30;94.70;;;;;;5092907;28;20109;-76
2022/06/09 12:19:29;;;;;;;9.23;2.37;;;21.40;92.50;;;;;;5092754;28;20048;-75
2022/06/09 12:22:00;;;;;;;7.70;2.17;;;21.30;92.20;;;;;;5092529;28;20158;-75
2022/06/09 12:24:33;;;;;;;7.27;2.07;;;21.20;92.00;;;;;;5092852;28;20101;-75
2022/06/09 12:27:38;;;;;;;8.97;2.20;;;21.20;92.40;;;;;;5092703;28;20051;-75
2022/06/09 12:30:18;;;;;;;9.40;2.28;;;21.20;93.20;;;;;;5092875;28;20044;-75
2022/06/09 12:32:52;;;;;;;9.07;1.87;;;21.20;93.70;;;;;;5092520;28;20048;-75
2022/06/09 12:35:28;;;;;;;10.93;2.28;;;21.20;94.00;;;;;;5092571;28;20498;-75
2022/06/09 12:38:02;;;;;;;6.17;2.00;;;21.30;92.20;;;;;;5092250;28;20465;-76
2022/06/09 12:40:47;;;;;;;8.48;2.15;;;21.20;92.60;;;;;;5092731;28;20052;-76
2022/06/09 12:43:27;;;;;;;6.82;2.50;;;21.20;91.70;;;;;;5092395;28;20495;-77
2022/06/09 12:46:25;;;;;;;9.93;2.47;;;21.10;92.80;;;;;;5092270;28;20520;-74
2022/06/09 12:48:53;;;;;;;10.80;2.27;;;21.10;91.90;;;;;;5086433;28;20052;-78
2022/06/09 12:51:40;;;;;;;7.97;2.30;;;21.10;92.00;;;;;;5092608;28;20051;-75
2022/06/09 12:54:18;;;;;;;7.43;1.90;;;21.00;91.40;;;;;;5092709;28;20052;-74
2022/06/09 12:56:45;;;;;;;7.77;2.27;;;;;;;;;;5092120;28;20048;-76
2022/06/09 12:59:32;;;;;;;10.27;2.40;;;;;;;;;;5092475;28;20502;-77
2022/06/09 13:01:58;;;;;;;6.90;1.83;;;20.60;99.90;;;;;;5091971;28;20484;-78
2022/06/09 13:04:26;;;;;;;7.03;2.10;;;20.50;89.10;;;;;;5074679;28;20063;-75
2022/06/09 13:06:53;;;;;;;8.83;2.20;;;20.50;90.80;;;;;;5092160;28;20052;-76
2022/06/09 13:09:30;;;;;;;7.40;2.20;;;20.50;94.20;;;;;;5092197;28;20139;-77
2022/06/09 13:14:51;;;;;;;9.40;2.30;;;20.50;91.40;;;;;;5092815;28;20400;-75
2022/06/09 13:17:27;;;;;;;9.47;2.27;;;20.50;91.00;;;;;;5077855;28;20044;-74
2022/06/09 13:20:05;;;;;;;8.83;2.30;;;20.50;91.60;;;;;;5095767;28;20052;-79
2022/06/09 13:22:32;;;;;;;8.20;2.10;;;20.50;92.10;;;;;;5095954;28;20127;-74
2022/06/09 13:25:00;;;;;;;8.73;2.30;;;20.50;96.80;;;;;;5060894;28;20060;-73
2022/06/09 13:27:31;;;;;;;7.83;1.97;;;20.50;96.30;;;;;;5095836;28;20051;-74
2022/06/09 13:29:57;;;;;;;9.30;2.37;;;20.50;96.20;;;;;;5095411;28;20042;-75
2022/06/09 13:32:22;;;;;;;7.23;2.37;;;20.40;95.70;;;;;;5095493;28;20085;-74
2022/06/09 13:34:51;;;;;;;7.90;2.30;;;20.40;96.10;;;;;;5095508;28;20047;-78
2022/06/09 13:37:21;;;;;;;9.07;2.30;;;20.40;96.50;;;;;;5094853;28;20044;-72